sensor_id;sensor_type;location;lat;lon;timestamp;temperature;humidity
48208;DHT22;33997;53.278;9.708;2023-02-28T00:00:25;1.70;82.30
48208;DHT22;33997;53.278;9.708;2023-02-28T00:02:51;1.70;81.50
48208;DHT22;33997;53.278;9.708;2023-02-28T00:05:19;1.70;81.60
48208;DHT22;33997;53.278;9.708;2023-02-28T00:07:44;1.70;81.70
48208;DHT22;33997;53.278;9.708;2023-02-28T00:10:13;1.70;81.50
48208;DHT22;33997;53.278;9.708;2023-02-28T00:12:39;1.60;82.20
48208;DHT22;33997;53.278;9.708;2023-02-28T00:15:09;1.60;82.40
48208;DHT22;33997;53.278;9.708;2023-02-28T00:17:35;1.50;82.50
48208;DHT22;33997;53.278;9.708;2023-02-28T00:20:00;1.40;82.80
48208;DHT22;33997;53.278;9.708;2023-02-28T00:22:33;1.40;82.80
48208;DHT22;33997;53.278;9.708;2023-02-28T00:24:58;1.30;83.00
48208;DHT22;33997;53.278;9.708;2023-02-28T00:27:24;1.20;83.40
48208;DHT22;33997;53.278;9.708;2023-02-28T00:29:49;1.10;83.70
48208;DHT22;33997;53.278;9.708;2023-02-28T00:32:15;1.00;83.80
48208;DHT22;33997;53.278;9.708;2023-02-28T00:34:40;0.90;84.00
48208;DHT22;33997;53.278;9.708;2023-02-28T00:37:07;0.80;84.30
48208;DHT22;33997;53.278;9.708;2023-02-28T00:39:34;0.60;84.60
48208;DHT22;33997;53.278;9.708;2023-02-28T00:42:00;0.50;84.90
48208;DHT22;33997;53.278;9.708;2023-02-28T00:44:25;0.30;85.30
48208;DHT22;33997;53.278;9.708;2023-02-28T00:46:51;0.20;85.90
48208;DHT22;33997;53.278;9.708;2023-02-28T00:49:17;0.10;86.50
48208;DHT22;33997;53.278;9.708;2023-02-28T00:51:42;0.00;86.70
48208;DHT22;33997;53.278;9.708;2023-02-28T00:54:08;0.00;86.90
48208;DHT22;33997;53.278;9.708;2023-02-28T00:56:33;-3276.60;87.30
48208;DHT22;33997;53.278;9.708;2023-02-28T00:58:59;-3276.50;87.70
48208;DHT22;33997;53.278;9.708;2023-02-28T01:01:24;-3276.40;88.10
48208;DHT22;33997;53.278;9.708;2023-02-28T01:03:50;-3276.40;88.40
48208;DHT22;33997;53.278;9.708;2023-02-28T01:06:15;-3276.40;88.70
48208;DHT22;33997;53.278;9.708;2023-02-28T01:08:41;-3276.30;89.10
48208;DHT22;33997;53.278;9.708;2023-02-28T01:11:11;-3276.30;89.10
48208;DHT22;33997;53.278;9.708;2023-02-28T01:13:37;-3276.30;89.30
48208;DHT22;33997;53.278;9.708;2023-02-28T01:16:03;-3276.30;89.00
48208;DHT22;33997;53.278;9.708;2023-02-28T01:18:28;-3276.30;89.00
48208;DHT22;33997;53.278;9.708;2023-02-28T01:20:54;-3276.20;89.20
48208;DHT22;33997;53.278;9.708;2023-02-28T01:23:21;-3276.20;89.20
48208;DHT22;33997;53.278;9.708;2023-02-28T01:25:48;-3276.20;89.30
48208;DHT22;33997;53.278;9.708;2023-02-28T01:28:14;-3276.10;89.10
48208;DHT22;33997;53.278;9.708;2023-02-28T01:30:39;-3276.10;89.50
48208;DHT22;33997;53.278;9.708;2023-02-28T01:33:06;-3276.00;89.80
48208;DHT22;33997;53.278;9.708;2023-02-28T01:35:33;-3276.00;89.90
48208;DHT22;33997;53.278;9.708;2023-02-28T01:37:59;-3276.00;89.80
48208;DHT22;33997;53.278;9.708;2023-02-28T01:40:24;-3276.00;89.90
48208;DHT22;33997;53.278;9.708;2023-02-28T01:42:50;-3276.00;90.00
48208;DHT22;33997;53.278;9.708;2023-02-28T01:47:46;-3275.80;90.10
48208;DHT22;33997;53.278;9.708;2023-02-28T01:50:16;-3275.80;90.40
48208;DHT22;33997;53.278;9.708;2023-02-28T01:52:44;-3275.70;90.30
48208;DHT22;33997;53.278;9.708;2023-02-28T01:55:11;-3275.60;90.50
48208;DHT22;33997;53.278;9.708;2023-02-28T01:57:49;-3275.50;90.70
48208;DHT22;33997;53.278;9.708;2023-02-28T02:00:20;-3275.40;90.90
48208;DHT22;33997;53.278;9.708;2023-02-28T02:02:49;-3275.30;91.00
48208;DHT22;33997;53.278;9.708;2023-02-28T02:05:19;-3275.30;91.30
48208;DHT22;33997;53.278;9.708;2023-02-28T02:07:45;-3275.30;91.50
48208;DHT22;33997;53.278;9.708;2023-02-28T02:10:19;-3275.20;91.70
48208;DHT22;33997;53.278;9.708;2023-02-28T02:13:34;-3275.20;91.70
48208;DHT22;33997;53.278;9.708;2023-02-28T02:16:19;-3275.10;91.80
48208;DHT22;33997;53.278;9.708;2023-02-28T02:19:01;-3275.10;92.10
48208;DHT22;33997;53.278;9.708;2023-02-28T02:24:33;-3275.00;92.50
48208;DHT22;33997;53.278;9.708;2023-02-28T02:30:26;-3275.00;92.70
48208;DHT22;33997;53.278;9.708;2023-02-28T02:38:35;-3275.00;93.10
48208;DHT22;33997;53.278;9.708;2023-02-28T02:46:21;-3274.90;93.30
48208;DHT22;33997;53.278;9.708;2023-02-28T02:48:48;-3274.80;93.20
48208;DHT22;33997;53.278;9.708;2023-02-28T02:51:17;-3274.80;93.30
48208;DHT22;33997;53.278;9.708;2023-02-28T02:53:49;-3274.70;93.40
48208;DHT22;33997;53.278;9.708;2023-02-28T02:56:18;-3274.70;93.50
48208;DHT22;33997;53.278;9.708;2023-02-28T02:58:47;-3274.70;93.70
48208;DHT22;33997;53.278;9.708;2023-02-28T03:01:18;-3274.70;93.80
48208;DHT22;33997;53.278;9.708;2023-02-28T03:04:10;-3274.70;93.90
48208;DHT22;33997;53.278;9.708;2023-02-28T03:06:36;-3274.80;93.90
48208;DHT22;33997;53.278;9.708;2023-02-28T03:09:02;-3274.70;93.80
48208;DHT22;33997;53.278;9.708;2023-02-28T03:11:28;-3274.80;94.00
48208;DHT22;33997;53.278;9.708;2023-02-28T03:14:43;-3274.90;94.00
48208;DHT22;33997;53.278;9.708;2023-02-28T03:19:55;-3274.80;94.00
48208;DHT22;33997;53.278;9.708;2023-02-28T03:22:38;-3274.80;93.90
48208;DHT22;33997;53.278;9.708;2023-02-28T03:25:09;-3274.70;93.80
48208;DHT22;33997;53.278;9.708;2023-02-28T03:30:26;-3274.60;93.80
48208;DHT22;33997;53.278;9.708;2023-02-28T03:33:09;-3274.60;94.10
48208;DHT22;33997;53.278;9.708;2023-02-28T03:35:44;-3274.50;94.10
48208;DHT22;33997;53.278;9.708;2023-02-28T03:41:00;-3274.50;94.20
48208;DHT22;33997;53.278;9.708;2023-02-28T03:43:30;-3274.30;94.10
48208;DHT22;33997;53.278;9.708;2023-02-28T03:46:01;-3274.30;94.10
48208;DHT22;33997;53.278;9.708;2023-02-28T03:48:40;-3274.30;94.30
48208;DHT22;33997;53.278;9.708;2023-02-28T03:51:09;-3274.20;94.30
48208;DHT22;33997;53.278;9.708;2023-02-28T03:53:37;-3274.20;94.40
48208;DHT22;33997;53.278;9.708;2023-02-28T03:56:16;-3274.20;94.60
48208;DHT22;33997;53.278;9.708;2023-02-28T03:59:52;-3274.20;94.60
48208;DHT22;33997;53.278;9.708;2023-02-28T04:01:48;-3274.20;94.60
48208;DHT22;33997;53.278;9.708;2023-02-28T04:04:15;-3274.20;94.80
48208;DHT22;33997;53.278;9.708;2023-02-28T04:06:41;-3274.20;94.80
48208;DHT22;33997;53.278;9.708;2023-02-28T04:09:09;-3274.20;94.80
48208;DHT22;33997;53.278;9.708;2023-02-28T04:11:37;-3274.30;94.90
48208;DHT22;33997;53.278;9.708;2023-02-28T04:14:04;-3274.30;94.80
48208;DHT22;33997;53.278;9.708;2023-02-28T04:16:31;-3274.30;94.90
48208;DHT22;33997;53.278;9.708;2023-02-28T04:18:57;-3274.20;94.90
48208;DHT22;33997;53.278;9.708;2023-02-28T04:21:28;-3274.30;94.90
48208;DHT22;33997;53.278;9.708;2023-02-28T04:23:54;-3274.20;94.80
48208;DHT22;33997;53.278;9.708;2023-02-28T04:26:20;-3274.10;94.90
48208;DHT22;33997;53.278;9.708;2023-02-28T04:28:45;-3274.10;94.90
48208;DHT22;33997;53.278;9.708;2023-02-28T04:31:11;-3274.10;94.90
48208;DHT22;33997;53.278;9.708;2023-02-28T04:33:36;-3274.00;94.80
48208;DHT22;33997;53.278;9.708;2023-02-28T04:36:08;-3274.00;94.90
48208;DHT22;33997;53.278;9.708;2023-02-28T04:38:37;-3273.90;95.00
48208;DHT22;33997;53.278;9.708;2023-02-28T04:41:04;-3273.90;95.00
48208;DHT22;33997;53.278;9.708;2023-02-28T04:43:30;-3273.90;95.10
48208;DHT22;33997;53.278;9.708;2023-02-28T04:45:57;-3273.80;95.00
48208;DHT22;33997;53.278;9.708;2023-02-28T04:48:24;-3273.80;95.10
48208;DHT22;33997;53.278;9.708;2023-02-28T04:50:50;-3273.70;95.10
48208;DHT22;33997;53.278;9.708;2023-02-28T04:53:16;-3273.70;95.20
48208;DHT22;33997;53.278;9.708;2023-02-28T04:55:42;-3273.70;95.10
48208;DHT22;33997;53.278;9.708;2023-02-28T04:58:07;-3273.60;95.20
48208;DHT22;33997;53.278;9.708;2023-02-28T05:00:33;-3273.60;95.20
48208;DHT22;33997;53.278;9.708;2023-02-28T05:02:58;-3273.60;95.20
48208;DHT22;33997;53.278;9.708;2023-02-28T05:05:24;-3273.60;95.20
48208;DHT22;33997;53.278;9.708;2023-02-28T05:07:49;-3273.60;95.20
48208;DHT22;33997;53.278;9.708;2023-02-28T05:10:15;-3273.50;95.10
48208;DHT22;33997;53.278;9.708;2023-02-28T05:12:40;-3273.50;95.10
48208;DHT22;33997;53.278;9.708;2023-02-28T05:15:07;-3273.60;95.40
48208;DHT22;33997;53.278;9.708;2023-02-28T05:17:33;-3273.60;95.40
48208;DHT22;33997;53.278;9.708;2023-02-28T05:19:59;-3273.60;95.50
48208;DHT22;33997;53.278;9.708;2023-02-28T05:22:24;-3273.60;95.60
48208;DHT22;33997;53.278;9.708;2023-02-28T05:24:50;-3273.60;95.60
48208;DHT22;33997;53.278;9.708;2023-02-28T05:27:15;-3273.60;95.70
48208;DHT22;33997;53.278;9.708;2023-02-28T05:29:41;-3273.60;95.50
48208;DHT22;33997;53.278;9.708;2023-02-28T05:32:10;-3273.60;95.60
48208;DHT22;33997;53.278;9.708;2023-02-28T05:34:37;-3273.50;95.50
48208;DHT22;33997;53.278;9.708;2023-02-28T05:37:12;-3273.50;95.50
48208;DHT22;33997;53.278;9.708;2023-02-28T05:39:38;-3273.50;95.60
48208;DHT22;33997;53.278;9.708;2023-02-28T05:42:04;-3273.50;95.60
48208;DHT22;33997;53.278;9.708;2023-02-28T05:44:29;-3273.40;95.50
48208;DHT22;33997;53.278;9.708;2023-02-28T05:46:55;-3273.40;95.40
48208;DHT22;33997;53.278;9.708;2023-02-28T05:49:20;-3273.30;95.50
48208;DHT22;33997;53.278;9.708;2023-02-28T05:51:46;-3273.30;95.70
48208;DHT22;33997;53.278;9.708;2023-02-28T05:54:11;-3273.30;95.60
48208;DHT22;33997;53.278;9.708;2023-02-28T05:56:37;-3273.30;95.50
48208;DHT22;33997;53.278;9.708;2023-02-28T05:59:09;-3273.20;95.50
48208;DHT22;33997;53.278;9.708;2023-02-28T06:01:43;-3273.30;95.70
48208;DHT22;33997;53.278;9.708;2023-02-28T06:04:13;-3273.20;95.70
48208;DHT22;33997;53.278;9.708;2023-02-28T06:06:43;-3273.20;95.70
48208;DHT22;33997;53.278;9.708;2023-02-28T06:09:09;-3273.20;95.70
48208;DHT22;33997;53.278;9.708;2023-02-28T06:11:34;-3273.20;95.60
48208;DHT22;33997;53.278;9.708;2023-02-28T06:14:01;-3273.20;95.80
48208;DHT22;33997;53.278;9.708;2023-02-28T06:16:27;-3273.20;95.80
48208;DHT22;33997;53.278;9.708;2023-02-28T06:18:53;-3273.20;95.90
48208;DHT22;33997;53.278;9.708;2023-02-28T06:21:21;-3273.20;95.90
48208;DHT22;33997;53.278;9.708;2023-02-28T06:23:47;-3273.20;95.90
48208;DHT22;33997;53.278;9.708;2023-02-28T06:26:12;-3273.30;95.90
48208;DHT22;33997;53.278;9.708;2023-02-28T06:28:38;-3273.30;95.80
48208;DHT22;33997;53.278;9.708;2023-02-28T06:31:08;-3273.20;95.80
48208;DHT22;33997;53.278;9.708;2023-02-28T06:33:34;-3273.40;96.00
48208;DHT22;33997;53.278;9.708;2023-02-28T06:36:00;-3273.40;95.90
48208;DHT22;33997;53.278;9.708;2023-02-28T06:38:25;-3273.40;95.90
48208;DHT22;33997;53.278;9.708;2023-02-28T06:40:55;-3273.30;95.80
48208;DHT22;33997;53.278;9.708;2023-02-28T06:43:21;-3273.30;95.80
48208;DHT22;33997;53.278;9.708;2023-02-28T06:45:47;-3273.30;95.90
48208;DHT22;33997;53.278;9.708;2023-02-28T06:48:13;-3273.30;95.70
48208;DHT22;33997;53.278;9.708;2023-02-28T06:50:38;-3273.30;95.80
48208;DHT22;33997;53.278;9.708;2023-02-28T06:53:04;-3273.30;95.70
48208;DHT22;33997;53.278;9.708;2023-02-28T06:55:29;-3273.30;95.70
48208;DHT22;33997;53.278;9.708;2023-02-28T06:57:55;-3273.30;95.70
48208;DHT22;33997;53.278;9.708;2023-02-28T07:00:21;-3273.50;95.90
48208;DHT22;33997;53.278;9.708;2023-02-28T07:02:46;-3273.50;95.80
48208;DHT22;33997;53.278;9.708;2023-02-28T07:05:13;-3273.50;95.70
48208;DHT22;33997;53.278;9.708;2023-02-28T07:07:39;-3273.50;95.70
48208;DHT22;33997;53.278;9.708;2023-02-28T07:10:11;-3273.60;95.80
48208;DHT22;33997;53.278;9.708;2023-02-28T07:12:37;-3273.70;95.80
48208;DHT22;33997;53.278;9.708;2023-02-28T07:15:04;-3273.70;95.90
48208;DHT22;33997;53.278;9.708;2023-02-28T07:17:30;-3273.90;96.10
48208;DHT22;33997;53.278;9.708;2023-02-28T07:19:56;-3274.00;96.00
48208;DHT22;33997;53.278;9.708;2023-02-28T07:22:21;-3274.00;96.00
48208;DHT22;33997;53.278;9.708;2023-02-28T07:24:47;-3274.10;96.00
48208;DHT22;33997;53.278;9.708;2023-02-28T07:27:12;-3274.30;96.40
48208;DHT22;33997;53.278;9.708;2023-02-28T07:29:51;-3274.30;96.30
48208;DHT22;33997;53.278;9.708;2023-02-28T07:32:16;-3274.60;96.50
48208;DHT22;33997;53.278;9.708;2023-02-28T07:34:42;-3274.90;96.90
48208;DHT22;33997;53.278;9.708;2023-02-28T07:37:07;-3275.10;96.90
48208;DHT22;33997;53.278;9.708;2023-02-28T07:39:33;-3275.20;96.80
48208;DHT22;33997;53.278;9.708;2023-02-28T07:41:58;-3275.30;96.80
48208;DHT22;33997;53.278;9.708;2023-02-28T07:44:25;-3275.50;96.60
48208;DHT22;33997;53.278;9.708;2023-02-28T07:46:51;-3275.60;96.80
48208;DHT22;33997;53.278;9.708;2023-02-28T07:49:16;-3275.80;96.60
48208;DHT22;33997;53.278;9.708;2023-02-28T07:51:42;-3275.90;96.50
48208;DHT22;33997;53.278;9.708;2023-02-28T07:54:07;-3276.00;96.10
48208;DHT22;33997;53.278;9.708;2023-02-28T07:56:33;-3276.10;96.00
48208;DHT22;33997;53.278;9.708;2023-02-28T07:58:58;-3276.30;95.90
48208;DHT22;33997;53.278;9.708;2023-02-28T08:01:24;-3276.60;95.30
48208;DHT22;33997;53.278;9.708;2023-02-28T08:03:49;0.00;95.10
48208;DHT22;33997;53.278;9.708;2023-02-28T08:06:17;0.10;94.00
48208;DHT22;33997;53.278;9.708;2023-02-28T08:08:43;0.40;93.80
48208;DHT22;33997;53.278;9.708;2023-02-28T08:11:09;0.40;93.20
48208;DHT22;33997;53.278;9.708;2023-02-28T08:13:35;0.80;92.50
48208;DHT22;33997;53.278;9.708;2023-02-28T08:16:01;1.10;90.70
48208;DHT22;33997;53.278;9.708;2023-02-28T08:18:27;1.30;88.30
48208;DHT22;33997;53.278;9.708;2023-02-28T08:20:52;1.60;87.00
48208;DHT22;33997;53.278;9.708;2023-02-28T08:23:18;1.80;85.50
48208;DHT22;33997;53.278;9.708;2023-02-28T08:25:44;2.00;84.50
48208;DHT22;33997;53.278;9.708;2023-02-28T08:28:09;2.50;85.70
48208;DHT22;33997;53.278;9.708;2023-02-28T08:30:35;2.40;82.30
48208;DHT22;33997;53.278;9.708;2023-02-28T08:33:00;2.40;82.00
48208;DHT22;33997;53.278;9.708;2023-02-28T08:35:27;2.60;81.30
48208;DHT22;33997;53.278;9.708;2023-02-28T08:37:52;2.60;80.10
48208;DHT22;33997;53.278;9.708;2023-02-28T08:40:18;2.80;80.00
48208;DHT22;33997;53.278;9.708;2023-02-28T08:42:47;2.90;79.20
48208;DHT22;33997;53.278;9.708;2023-02-28T08:45:14;3.10;79.20
48208;DHT22;33997;53.278;9.708;2023-02-28T08:47:40;3.60;78.60
48208;DHT22;33997;53.278;9.708;2023-02-28T08:50:07;3.80;77.90
48208;DHT22;33997;53.278;9.708;2023-02-28T08:52:33;4.10;76.70
48208;DHT22;33997;53.278;9.708;2023-02-28T08:54:58;4.30;76.10
48208;DHT22;33997;53.278;9.708;2023-02-28T08:57:24;4.30;73.40
48208;DHT22;33997;53.278;9.708;2023-02-28T08:59:51;4.20;72.00
48208;DHT22;33997;53.278;9.708;2023-02-28T09:02:17;4.20;72.90
48208;DHT22;33997;53.278;9.708;2023-02-28T09:04:43;4.30;71.40
48208;DHT22;33997;53.278;9.708;2023-02-28T09:07:11;4.20;70.30
48208;DHT22;33997;53.278;9.708;2023-02-28T09:09:36;4.20;67.30
48208;DHT22;33997;53.278;9.708;2023-02-28T09:12:02;4.30;66.50
48208;DHT22;33997;53.278;9.708;2023-02-28T09:14:28;4.60;68.60
48208;DHT22;33997;53.278;9.708;2023-02-28T09:16:53;4.80;66.20
48208;DHT22;33997;53.278;9.708;2023-02-28T09:19:19;4.80;65.70
48208;DHT22;33997;53.278;9.708;2023-02-28T09:21:45;5.10;66.70
48208;DHT22;33997;53.278;9.708;2023-02-28T09:24:11;5.00;62.90
48208;DHT22;33997;53.278;9.708;2023-02-28T09:26:39;4.90;59.80
48208;DHT22;33997;53.278;9.708;2023-02-28T09:29:05;4.90;58.60
48208;DHT22;33997;53.278;9.708;2023-02-28T09:31:32;5.30;59.90
48208;DHT22;33997;53.278;9.708;2023-02-28T09:33:58;5.30;57.00
48208;DHT22;33997;53.278;9.708;2023-02-28T09:36:25;5.40;58.10
48208;DHT22;33997;53.278;9.708;2023-02-28T09:38:52;5.40;53.00
48208;DHT22;33997;53.278;9.708;2023-02-28T09:41:23;5.40;53.80
48208;DHT22;33997;53.278;9.708;2023-02-28T09:43:53;5.50;54.40
48208;DHT22;33997;53.278;9.708;2023-02-28T09:46:33;5.70;55.60
48208;DHT22;33997;53.278;9.708;2023-02-28T09:49:06;5.60;55.30
48208;DHT22;33997;53.278;9.708;2023-02-28T09:51:42;5.60;56.00
48208;DHT22;33997;53.278;9.708;2023-02-28T09:54:18;5.70;56.10
48208;DHT22;33997;53.278;9.708;2023-02-28T09:56:53;5.70;56.40
48208;DHT22;33997;53.278;9.708;2023-02-28T09:59:54;5.90;55.30
48208;DHT22;33997;53.278;9.708;2023-02-28T10:05:12;6.30;55.20
48208;DHT22;33997;53.278;9.708;2023-02-28T10:10:46;6.80;58.00
48208;DHT22;33997;53.278;9.708;2023-02-28T10:13:27;6.90;56.10
48208;DHT22;33997;53.278;9.708;2023-02-28T10:16:06;7.00;55.90
48208;DHT22;33997;53.278;9.708;2023-02-28T10:22:19;6.30;54.70
48208;DHT22;33997;53.278;9.708;2023-02-28T10:24:50;6.60;57.10
48208;DHT22;33997;53.278;9.708;2023-02-28T10:27:24;6.50;55.50
48208;DHT22;33997;53.278;9.708;2023-02-28T10:29:52;6.60;56.00
48208;DHT22;33997;53.278;9.708;2023-02-28T10:32:21;6.80;54.90
48208;DHT22;33997;53.278;9.708;2023-02-28T10:34:55;7.00;55.20
48208;DHT22;33997;53.278;9.708;2023-02-28T10:37:22;7.10;53.60
48208;DHT22;33997;53.278;9.708;2023-02-28T10:39:47;6.90;53.90
48208;DHT22;33997;53.278;9.708;2023-02-28T10:42:27;6.80;52.60
48208;DHT22;33997;53.278;9.708;2023-02-28T10:45:11;6.60;54.60
48208;DHT22;33997;53.278;9.708;2023-02-28T10:52:54;6.80;53.10
48208;DHT22;33997;53.278;9.708;2023-02-28T10:55:24;6.70;54.60
48208;DHT22;33997;53.278;9.708;2023-02-28T10:57:51;7.20;53.30
48208;DHT22;33997;53.278;9.708;2023-02-28T11:00:19;6.90;53.90
48208;DHT22;33997;53.278;9.708;2023-02-28T11:02:45;6.70;51.00
48208;DHT22;33997;53.278;9.708;2023-02-28T11:05:30;7.20;54.50
48208;DHT22;33997;53.278;9.708;2023-02-28T11:10:32;7.40;52.40
48208;DHT22;33997;53.278;9.708;2023-02-28T11:13:00;7.20;51.70
48208;DHT22;33997;53.278;9.708;2023-02-28T11:15:29;7.30;51.10
48208;DHT22;33997;53.278;9.708;2023-02-28T11:18:15;7.00;50.60
48208;DHT22;33997;53.278;9.708;2023-02-28T11:20:42;7.20;51.30
48208;DHT22;33997;53.278;9.708;2023-02-28T11:23:12;7.50;50.60
48208;DHT22;33997;53.278;9.708;2023-02-28T11:25:39;7.50;51.10
48208;DHT22;33997;53.278;9.708;2023-02-28T11:28:08;7.60;51.40
48208;DHT22;33997;53.278;9.708;2023-02-28T11:31:00;7.90;51.60
48208;DHT22;33997;53.278;9.708;2023-02-28T11:35:58;7.90;50.50
48208;DHT22;33997;53.278;9.708;2023-02-28T11:38:26;8.20;49.80
48208;DHT22;33997;53.278;9.708;2023-02-28T11:43:39;8.40;49.20
48208;DHT22;33997;53.278;9.708;2023-02-28T11:46:26;8.20;48.90
48208;DHT22;33997;53.278;9.708;2023-02-28T11:51:33;8.80;50.20
48208;DHT22;33997;53.278;9.708;2023-02-28T11:54:14;8.70;48.50
48208;DHT22;33997;53.278;9.708;2023-02-28T11:56:55;8.60;48.60
48208;DHT22;33997;53.278;9.708;2023-02-28T12:00:03;8.90;47.10
48208;DHT22;33997;53.278;9.708;2023-02-28T12:05:46;9.60;47.40
48208;DHT22;33997;53.278;9.708;2023-02-28T12:08:44;9.40;47.20
48208;DHT22;33997;53.278;9.708;2023-02-28T12:11:16;9.10;46.60
48208;DHT22;33997;53.278;9.708;2023-02-28T12:13:55;9.10;46.70
48208;DHT22;33997;53.278;9.708;2023-02-28T12:19:12;9.70;46.10
48208;DHT22;33997;53.278;9.708;2023-02-28T12:24:54;9.60;45.30
48208;DHT22;33997;53.278;9.708;2023-02-28T12:27:25;9.90;45.30
48208;DHT22;33997;53.278;9.708;2023-02-28T12:30:02;9.70;45.10
48208;DHT22;33997;53.278;9.708;2023-02-28T12:32:37;10.30;44.50
48208;DHT22;33997;53.278;9.708;2023-02-28T12:37:47;10.30;44.50
48208;DHT22;33997;53.278;9.708;2023-02-28T12:40:22;10.90;44.60
48208;DHT22;33997;53.278;9.708;2023-02-28T12:42:55;10.60;42.10
48208;DHT22;33997;53.278;9.708;2023-02-28T12:45:40;11.40;42.70
48208;DHT22;33997;53.278;9.708;2023-02-28T12:48:09;11.70;39.40
48208;DHT22;33997;53.278;9.708;2023-02-28T12:50:37;11.00;39.80
48208;DHT22;33997;53.278;9.708;2023-02-28T12:55:49;11.30;40.30
48208;DHT22;33997;53.278;9.708;2023-02-28T12:58:28;12.00;39.90
48208;DHT22;33997;53.278;9.708;2023-02-28T13:07:16;12.20;37.60
48208;DHT22;33997;53.278;9.708;2023-02-28T13:09:59;12.00;37.80
48208;DHT22;33997;53.278;9.708;2023-02-28T13:12:26;12.50;37.80
48208;DHT22;33997;53.278;9.708;2023-02-28T13:15:04;12.50;36.00
48208;DHT22;33997;53.278;9.708;2023-02-28T13:17:30;12.70;37.90
48208;DHT22;33997;53.278;9.708;2023-02-28T13:19:58;12.60;37.00
48208;DHT22;33997;53.278;9.708;2023-02-28T13:22:48;11.90;36.20
48208;DHT22;33997;53.278;9.708;2023-02-28T13:27:49;12.50;35.60
48208;DHT22;33997;53.278;9.708;2023-02-28T13:35:45;13.00;35.10
48208;DHT22;33997;53.278;9.708;2023-02-28T13:38:23;13.40;33.60
48208;DHT22;33997;53.278;9.708;2023-02-28T13:40:49;13.00;34.10
48208;DHT22;33997;53.278;9.708;2023-02-28T13:43:17;13.10;33.50
48208;DHT22;33997;53.278;9.708;2023-02-28T13:46:08;13.30;35.00
48208;DHT22;33997;53.278;9.708;2023-02-28T13:48:35;13.20;36.00
48208;DHT22;33997;53.278;9.708;2023-02-28T13:51:36;13.60;32.20
48208;DHT22;33997;53.278;9.708;2023-02-28T13:57:34;13.60;32.70
48208;DHT22;33997;53.278;9.708;2023-02-28T14:09:22;14.50;33.20
48208;DHT22;33997;53.278;9.708;2023-02-28T14:11:49;14.30;32.70
48208;DHT22;33997;53.278;9.708;2023-02-28T14:17:03;14.10;30.00
48208;DHT22;33997;53.278;9.708;2023-02-28T14:19:31;14.80;32.00
48208;DHT22;33997;53.278;9.708;2023-02-28T14:25:21;14.50;31.60
48208;DHT22;33997;53.278;9.708;2023-02-28T14:31:07;14.60;31.80
48208;DHT22;33997;53.278;9.708;2023-02-28T14:33:43;14.40;30.80
48208;DHT22;33997;53.278;9.708;2023-02-28T14:36:27;14.60;32.30
48208;DHT22;33997;53.278;9.708;2023-02-28T14:38:59;14.50;30.00
48208;DHT22;33997;53.278;9.708;2023-02-28T14:41:34;14.20;29.90
48208;DHT22;33997;53.278;9.708;2023-02-28T14:44:12;14.20;31.00
48208;DHT22;33997;53.278;9.708;2023-02-28T14:46:40;15.00;31.10
48208;DHT22;33997;53.278;9.708;2023-02-28T14:54:31;14.40;32.00
48208;DHT22;33997;53.278;9.708;2023-02-28T14:56:57;13.80;32.00
48208;DHT22;33997;53.278;9.708;2023-02-28T14:59:28;13.60;32.30
48208;DHT22;33997;53.278;9.708;2023-02-28T15:02:14;14.10;32.70
48208;DHT22;33997;53.278;9.708;2023-02-28T15:04:40;13.80;33.00
48208;DHT22;33997;53.278;9.708;2023-02-28T15:07:08;13.80;32.80
48208;DHT22;33997;53.278;9.708;2023-02-28T15:09:34;13.20;31.70
48208;DHT22;33997;53.278;9.708;2023-02-28T15:11:59;13.40;33.70
48208;DHT22;33997;53.278;9.708;2023-02-28T15:14:26;12.70;34.00
48208;DHT22;33997;53.278;9.708;2023-02-28T15:17:02;12.20;34.40
48208;DHT22;33997;53.278;9.708;2023-02-28T15:19:35;12.60;34.10
48208;DHT22;33997;53.278;9.708;2023-02-28T15:22:07;12.50;33.20
48208;DHT22;33997;53.278;9.708;2023-02-28T15:24:47;12.70;35.00
48208;DHT22;33997;53.278;9.708;2023-02-28T15:27:24;12.80;35.40
48208;DHT22;33997;53.278;9.708;2023-02-28T15:29:54;12.50;35.50
48208;DHT22;33997;53.278;9.708;2023-02-28T15:32:34;12.50;36.10
48208;DHT22;33997;53.278;9.708;2023-02-28T15:37:53;12.90;36.80
48208;DHT22;33997;53.278;9.708;2023-02-28T15:40:41;12.90;36.60
48208;DHT22;33997;53.278;9.708;2023-02-28T15:43:14;11.80;36.60
48208;DHT22;33997;53.278;9.708;2023-02-28T15:45:49;12.70;37.20
48208;DHT22;33997;53.278;9.708;2023-02-28T15:48:30;12.70;36.30
48208;DHT22;33997;53.278;9.708;2023-02-28T15:51:07;12.80;36.70
48208;DHT22;33997;53.278;9.708;2023-02-28T15:53:41;12.90;35.00
48208;DHT22;33997;53.278;9.708;2023-02-28T15:56:24;13.20;35.80
48208;DHT22;33997;53.278;9.708;2023-02-28T15:58:53;12.40;35.00
48208;DHT22;33997;53.278;9.708;2023-02-28T16:01:34;13.30;36.00
48208;DHT22;33997;53.278;9.708;2023-02-28T16:04:04;12.90;33.80
48208;DHT22;33997;53.278;9.708;2023-02-28T16:06:44;13.40;34.20
48208;DHT22;33997;53.278;9.708;2023-02-28T16:09:16;13.30;34.60
48208;DHT22;33997;53.278;9.708;2023-02-28T16:11:48;12.80;35.10
48208;DHT22;33997;53.278;9.708;2023-02-28T16:14:22;13.00;34.90
48208;DHT22;33997;53.278;9.708;2023-02-28T16:16:51;12.10;34.20
48208;DHT22;33997;53.278;9.708;2023-02-28T16:19:17;10.70;36.40
48208;DHT22;33997;53.278;9.708;2023-02-28T16:21:43;9.50;37.20
48208;DHT22;33997;53.278;9.708;2023-02-28T16:24:09;9.00;39.90
48208;DHT22;33997;53.278;9.708;2023-02-28T16:26:35;8.20;41.40
48208;DHT22;33997;53.278;9.708;2023-02-28T16:29:03;7.70;42.60
48208;DHT22;33997;53.278;9.708;2023-02-28T16:31:29;7.30;44.70
48208;DHT22;33997;53.278;9.708;2023-02-28T16:33:55;6.80;45.00
48208;DHT22;33997;53.278;9.708;2023-02-28T16:36:23;6.40;45.80
48208;DHT22;33997;53.278;9.708;2023-02-28T16:38:51;6.00;47.90
48208;DHT22;33997;53.278;9.708;2023-02-28T16:41:27;5.80;48.90
48208;DHT22;33997;53.278;9.708;2023-02-28T16:43:55;5.50;48.50
48208;DHT22;33997;53.278;9.708;2023-02-28T16:46:28;5.30;49.60
48208;DHT22;33997;53.278;9.708;2023-02-28T16:48:54;4.90;49.40
48208;DHT22;33997;53.278;9.708;2023-02-28T16:51:20;4.70;53.20
48208;DHT22;33997;53.278;9.708;2023-02-28T16:53:45;4.50;53.80
48208;DHT22;33997;53.278;9.708;2023-02-28T16:56:21;4.30;55.30
48208;DHT22;33997;53.278;9.708;2023-02-28T16:58:48;4.10;54.60
48208;DHT22;33997;53.278;9.708;2023-02-28T17:01:14;3.90;56.70
48208;DHT22;33997;53.278;9.708;2023-02-28T17:03:40;3.70;57.70
48208;DHT22;33997;53.278;9.708;2023-02-28T17:06:10;3.50;58.10
48208;DHT22;33997;53.278;9.708;2023-02-28T17:08:41;3.40;58.90
48208;DHT22;33997;53.278;9.708;2023-02-28T17:11:06;3.10;58.70
48208;DHT22;33997;53.278;9.708;2023-02-28T17:13:31;2.90;58.00
48208;DHT22;33997;53.278;9.708;2023-02-28T17:15:59;2.80;59.50
48208;DHT22;33997;53.278;9.708;2023-02-28T17:18:25;2.70;60.10
48208;DHT22;33997;53.278;9.708;2023-02-28T17:20:52;2.50;61.10
48208;DHT22;33997;53.278;9.708;2023-02-28T17:23:17;2.30;61.90
48208;DHT22;33997;53.278;9.708;2023-02-28T17:25:43;2.10;62.50